Time;durP1;ratioP1;P1;durP2;ratioP2;P2;SDS_P1;SDS_P2;PMS_P1;PMS_P2;Temp;Humidity;BMP_temperature;BMP_pressure;BME280_temperature;BME280_humidity;BME280_pressure;Samples;Min_cycle;Max_cycle;Signal;HPM_P1;HPM_P2
2022/05/22 00:00:52;;;;;;;;;;;15.70;99.90;;;;;;5235119;28;20585;-74
2022/05/22 00:03:24;;;;;;;1.15;1.05;;;15.70;99.90;;;;;;5202772;28;19915;-73
2022/05/22 00:05:58;;;;;;;5.43;1.50;;;15.60;99.90;;;;;;5198245;28;20395;-74
2022/05/22 00:08:31;;;;;;;1.40;1.30;;;15.20;99.90;;;;;;5217305;28;20033;-74
2022/05/22 00:11:03;;;;;;;0.88;0.85;;;14.90;99.90;;;;;;5219380;28;20058;-74
2022/05/22 00:13:37;;;;;;;1.73;0.85;;;14.70;99.90;;;;;;5239353;28;20013;-74
2022/05/22 00:19:21;;;;;;;1.08;1.08;;;14.60;99.90;;;;;;5218871;28;20033;-73
2022/05/22 00:21:53;;;;;;;1.23;1.13;;;14.60;99.90;;;;;;5217020;28;20025;-73
2022/05/22 00:24:29;;;;;;;0.93;0.90;;;14.50;99.90;;;;;;5216811;28;20020;-73
2022/05/22 00:27:04;;;;;;;1.70;1.10;;;14.50;99.90;;;;;;5197785;28;20139;-73
2022/05/22 00:29:38;;;;;;;1.13;0.98;;;14.40;99.90;;;;;;5217409;28;20529;-74
2022/05/22 00:32:15;;;;;;;1.73;1.25;;;14.30;99.90;;;;;;5206577;28;20028;-74
2022/05/22 00:34:49;;;;;;;6.72;1.30;;;14.20;99.90;;;;;;5204759;28;20036;-74
2022/05/22 00:37:25;;;;;;;1.25;1.05;;;14.10;99.90;;;;;;5217958;28;20036;-74
2022/05/22 00:40:01;;;;;;;1.30;1.13;;;14.00;99.90;;;;;;5217575;28;20361;-73
2022/05/22 00:42:33;;;;;;;1.10;1.08;;;13.90;99.90;;;;;;5217612;28;20032;-73
2022/05/22 00:45:06;;;;;;;1.17;1.08;;;13.80;99.90;;;;;;5218669;28;20043;-73
2022/05/22 00:47:40;;;;;;;2.05;1.35;;;13.70;99.90;;;;;;5211385;28;20041;-73
2022/05/22 00:50:14;;;;;;;3.83;0.80;;;13.70;99.90;;;;;;5211061;28;20071;-73
2022/05/22 00:52:53;;;;;;;4.22;1.35;;;13.60;99.90;;;;;;5204516;28;20025;-73
2022/05/22 00:55:31;;;;;;;1.48;1.38;;;13.60;99.90;;;;;;5202318;28;20530;-73
2022/05/22 00:58:18;;;;;;;1.48;1.38;;;13.60;99.90;;;;;;5226056;28;20033;-73
2022/05/22 01:00:58;;;;;;;1.75;0.90;;;13.70;99.90;;;;;;5227858;28;20039;-73
2022/05/22 01:03:32;;;;;;;0.90;0.90;;;13.80;99.90;;;;;;5217506;28;20382;-73
2022/05/22 01:06:09;;;;;;;1.10;1.10;;;13.90;99.90;;;;;;5225880;28;20366;-74
2022/05/22 01:08:47;;;;;;;1.30;1.20;;;14.10;99.90;;;;;;5205698;28;20027;-74
2022/05/22 01:11:24;;;;;;;1.75;1.35;;;14.20;99.90;;;;;;5228480;28;20032;-73
2022/05/22 01:14:12;;;;;;;2.95;1.20;;;14.30;99.90;;;;;;5205114;28;20036;-73
2022/05/22 01:16:48;;;;;;;0.95;0.95;;;14.40;99.90;;;;;;5216530;28;20031;-73
2022/05/22 01:19:26;;;;;;;1.15;1.05;;;14.50;99.90;;;;;;5221268;28;20021;-73
2022/05/22 01:22:17;;;;;;;1.23;1.17;;;14.60;99.90;;;;;;5220356;28;20017;-73
2022/05/22 01:24:49;;;;;;;2.22;1.10;;;14.80;99.90;;;;;;5206097;28;20013;-73
2022/05/22 01:27:25;;;;;;;1.10;1.00;;;14.80;99.90;;;;;;5223008;28;20017;-73
2022/05/22 01:30:25;;;;;;;1.40;1.30;;;15.00;99.90;;;;;;5217567;28;20017;-73
2022/05/22 01:33:01;;;;;;;0.98;0.90;;;15.10;99.90;;;;;;5215169;28;20036;-73
2022/05/22 01:35:35;;;;;;;0.93;0.93;;;15.10;99.90;;;;;;5202453;28;20049;-73
2022/05/22 01:38:10;;;;;;;0.88;0.88;;;15.20;99.90;;;;;;5218941;28;20391;-73
2022/05/22 01:40:44;;;;;;;1.00;1.00;;;15.30;99.90;;;;;;5212902;28;20032;-73
2022/05/22 01:43:18;;;;;;;1.40;0.85;;;15.20;99.90;;;;;;5199295;28;20037;-73
2022/05/22 01:45:50;;;;;;;1.35;0.85;;;15.20;99.90;;;;;;5199462;28;20480;-73
2022/05/22 01:48:23;;;;;;;2.00;1.10;;;15.20;99.90;;;;;;5210721;28;20037;-73
2022/05/22 01:50:58;;;;;;;1.13;1.02;;;15.20;99.90;;;;;;5216955;28;20055;-73
2022/05/22 01:53:31;;;;;;;1.90;1.17;;;15.10;99.90;;;;;;5219732;28;20027;-73
2022/05/22 01:56:06;;;;;;;1.53;1.37;;;15.00;99.90;;;;;;5219353;28;20501;-73
2022/05/22 01:58:37;;;;;;;;;;;15.00;99.90;;;;;;5204341;28;20583;-73
2022/05/22 02:01:10;;;;;;;0.90;0.90;;;15.00;99.90;;;;;;5217829;28;19916;-73
2022/05/22 02:03:42;;;;;;;4.35;0.80;;;15.00;99.90;;;;;;5219364;28;20037;-73
2022/05/22 02:06:15;;;;;;;1.15;0.88;;;15.00;99.90;;;;;;5204964;28;20034;-73
2022/05/22 02:08:49;;;;;;;1.58;1.38;;;15.00;99.90;;;;;;5204500;28;20061;-73
2022/05/22 02:11:23;;;;;;;1.90;1.17;;;15.00;99.90;;;;;;5221134;28;20021;-73
2022/05/22 02:13:57;;;;;;;1.05;1.05;;;14.90;99.90;;;;;;5203964;28;20017;-73
2022/05/22 02:16:30;;;;;;;1.20;1.15;;;14.90;99.90;;;;;;5217538;28;20029;-73
2022/05/22 02:19:04;;;;;;;1.00;0.95;;;14.80;99.90;;;;;;5208881;28;20052;-73
2022/05/22 02:21:42;;;;;;;3.10;1.13;;;14.80;99.90;;;;;;5200058;28;20478;-73
2022/05/22 02:24:16;;;;;;;0.90;0.90;;;14.70;99.90;;;;;;5219720;28;20241;-74
2022/05/22 02:26:51;;;;;;;1.00;1.00;;;14.60;99.90;;;;;;5214493;28;20030;-72
2022/05/22 02:29:24;;;;;;;;;;;14.60;99.90;;;;;;5213316;28;20037;-74
2022/05/22 02:31:57;;;;;;;1.63;1.08;;;14.50;99.90;;;;;;5218541;28;19897;-74
2022/05/22 02:34:29;;;;;;;0.75;0.75;;;14.50;99.90;;;;;;5220001;28;20031;-74
2022/05/22 02:37:06;;;;;;;1.10;1.00;;;14.50;99.90;;;;;;5218328;28;20533;-74
2022/05/22 02:39:40;;;;;;;1.95;0.95;;;14.40;99.90;;;;;;5213068;28;20024;-74
2022/05/22 02:42:13;;;;;;;3.33;0.90;;;14.40;99.90;;;;;;5219623;28;20027;-73
2022/05/22 02:44:48;;;;;;;1.93;1.17;;;14.40;99.90;;;;;;5220606;28;20025;-73
2022/05/22 02:47:22;;;;;;;2.53;1.83;;;14.40;99.90;;;;;;5214511;28;20047;-73
2022/05/22 02:49:58;;;;;;;1.03;1.03;;;14.40;99.90;;;;;;5199284;28;20033;-74
2022/05/22 02:52:29;;;;;;;1.25;1.02;;;14.40;99.90;;;;;;5234955;28;20770;-74
2022/05/22 02:55:05;;;;;;;1.08;1.08;;;14.50;99.90;;;;;;5220885;28;20039;-74
2022/05/22 02:57:40;;;;;;;1.73;1.00;;;14.60;99.90;;;;;;5223372;28;20021;-74
2022/05/22 03:00:21;;;;;;;1.10;1.10;;;14.60;99.90;;;;;;5225048;28;20016;-74
2022/05/22 03:02:56;;;;;;;1.17;1.17;;;14.60;99.90;;;;;;5202482;28;20029;-74
2022/05/22 03:06:37;;;;;;;1.20;1.20;;;14.70;99.90;;;;;;5208187;28;20049;-74
2022/05/22 03:08:19;;;;;;;1.00;1.00;;;14.60;99.90;;;;;;5208534;28;20037;-74
2022/05/22 03:10:53;;;;;;;0.98;0.98;;;14.60;99.90;;;;;;5219580;28;20021;-74
2022/05/22 03:13:31;;;;;;;1.10;1.10;;;14.60;99.90;;;;;;5206671;28;20369;-74
2022/05/22 03:16:06;;;;;;;1.10;1.10;;;14.50;99.90;;;;;;5187077;28;20049;-73
2022/05/22 03:18:37;;;;;;;0.90;0.90;;;14.50;99.90;;;;;;5194543;28;20568;-73
2022/05/22 03:21:14;;;;;;;0.93;0.93;;;14.40;99.90;;;;;;5212915;28;20025;-74
2022/05/22 03:23:50;;;;;;;1.10;1.00;;;14.50;99.90;;;;;;5217719;28;20056;-74
2022/05/22 03:26:22;;;;;;;1.05;1.05;;;14.30;99.90;;;;;;5218602;28;20037;-74
2022/05/22 03:28:56;;;;;;;1.17;1.02;;;14.30;99.90;;;;;;5216224;28;20032;-74
2022/05/22 03:31:27;;;;;;;1.37;1.00;;;14.20;99.90;;;;;;5220754;28;20035;-74
2022/05/22 03:33:59;;;;;;;2.35;1.10;;;14.30;99.90;;;;;;5216339;28;20395;-74
2022/05/22 03:36:30;;;;;;;1.30;1.20;;;14.30;99.90;;;;;;5219206;28;20021;-74
2022/05/22 03:39:06;;;;;;;1.38;1.10;;;14.40;99.90;;;;;;5219842;28;20017;-74
2022/05/22 03:41:38;;;;;;;1.00;1.00;;;14.40;99.90;;;;;;5202006;28;20033;-74
2022/05/22 03:44:13;;;;;;;0.85;0.82;;;14.50;99.90;;;;;;5218661;28;20020;-74
2022/05/22 03:46:46;;;;;;;1.90;0.75;;;14.60;99.90;;;;;;5200634;28;20066;-74
2022/05/22 03:49:17;;;;;;;1.48;1.00;;;14.60;99.90;;;;;;5200874;28;20028;-74
2022/05/22 03:51:49;;;;;;;1.63;1.52;;;14.50;99.90;;;;;;5217014;28;20041;-74
2022/05/22 03:54:21;;;;;;;4.97;0.95;;;14.60;99.90;;;;;;5217955;28;20023;-74
2022/05/22 03:56:57;;;;;;;1.10;1.10;;;14.60;99.90;;;;;;5216460;28;20013;-74
2022/05/22 03:59:32;;;;;;;1.02;0.95;;;14.60;99.90;;;;;;5218408;28;20035;-74
2022/05/22 04:02:04;;;;;;;0.88;0.88;;;14.60;99.90;;;;;;5218257;28;20047;-74
2022/05/22 04:04:42;;;;;;;0.82;0.82;;;14.60;99.90;;;;;;5193443;28;20032;-74
2022/05/22 04:07:15;;;;;;;2.00;1.23;;;14.70;99.90;;;;;;5212918;28;20017;-74
2022/05/22 04:09:49;;;;;;;1.08;0.98;;;14.70;99.90;;;;;;5215458;28;20029;-74
2022/05/22 04:12:21;;;;;;;1.20;1.10;;;14.70;99.90;;;;;;5232263;28;20028;-74
2022/05/22 04:14:59;;;;;;;1.20;0.95;;;14.90;99.90;;;;;;5199243;28;20459;-74
2022/05/22 04:17:30;;;;;;;2.83;1.10;;;14.90;99.90;;;;;;5213304;28;20378;-74
2022/05/22 04:20:02;;;;;;;1.08;0.90;;;15.10;99.90;;;;;;5212719;28;20012;-74
2022/05/22 04:25:30;;;;;;;1.67;1.35;;;15.30;99.90;;;;;;5206561;28;20246;-74
2022/05/22 04:28:03;;;;;;;2.58;1.20;;;15.20;99.90;;;;;;5229354;28;20033;-74
2022/05/22 04:30:35;;;;;;;3.33;1.10;;;15.10;99.90;;;;;;5212952;28;20037;-74
2022/05/22 04:33:09;;;;;;;1.35;1.25;;;15.30;99.90;;;;;;5199052;28;20126;-74
2022/05/22 04:35:42;;;;;;;2.10;1.50;;;15.40;99.90;;;;;;5220804;28;20019;-73
2022/05/22 04:38:14;;;;;;;1.27;1.17;;;15.40;99.90;;;;;;5220518;28;20029;-73
2022/05/22 04:40:59;;;;;;;2.63;1.08;;;15.60;99.90;;;;;;5220598;28;20036;-74
2022/05/22 04:43:33;;;;;;;1.20;1.02;;;15.80;99.90;;;;;;5221089;28;20033;-74
2022/05/22 04:46:08;;;;;;;1.55;1.00;;;15.90;99.90;;;;;;5203214;28;20032;-74
2022/05/22 04:48:45;;;;;;;1.02;1.02;;;15.90;99.90;;;;;;5222093;28;20042;-74
2022/05/22 04:51:16;;;;;;;1.25;1.15;;;15.80;99.90;;;;;;5221927;28;20033;-74
2022/05/22 04:53:49;;;;;;;1.20;1.08;;;15.90;99.90;;;;;;5224606;28;20021;-74
2022/05/22 04:56:26;;;;;;;0.95;0.95;;;15.90;99.90;;;;;;5225007;28;20556;-74
2022/05/22 04:58:57;;;;;;;1.45;0.93;;;15.90;99.90;;;;;;5224372;28;20037;-74
2022/05/22 05:01:31;;;;;;;1.05;1.05;;;15.90;99.90;;;;;;5233560;28;20028;-75
2022/05/22 05:04:03;;;;;;;1.42;1.33;;;16.00;99.90;;;;;;5227813;28;20035;-74
2022/05/22 05:06:35;;;;;;;1.30;1.20;;;16.00;99.90;;;;;;5184669;28;20041;-72
2022/05/22 05:09:06;;;;;;;1.58;1.33;;;16.10;99.90;;;;;;5227486;28;20059;-74
2022/05/22 05:11:38;;;;;;;1.10;1.00;;;16.00;99.90;;;;;;5230659;28;20023;-74
2022/05/22 05:14:11;;;;;;;1.17;1.10;;;16.10;99.90;;;;;;5218978;28;20029;-74
2022/05/22 05:16:48;;;;;;;5.43;1.30;;;16.00;99.90;;;;;;5200762;28;20033;-73
2022/05/22 05:19:22;;;;;;;1.40;1.30;;;16.00;99.90;;;;;;5199636;28;20025;-74
2022/05/22 05:21:59;;;;;;;1.73;1.45;;;16.10;99.90;;;;;;5213751;28;20021;-73
2022/05/22 05:24:30;;;;;;;1.38;1.27;;;16.20;99.90;;;;;;5215706;28;20039;-73
2022/05/22 05:27:08;;;;;;;2.17;1.95;;;16.10;99.90;;;;;;5221131;28;20021;-73
2022/05/22 05:29:41;;;;;;;1.20;1.10;;;16.10;99.90;;;;;;5220330;28;20017;-73
2022/05/22 05:32:20;;;;;;;1.58;1.02;;;16.10;99.90;;;;;;5220809;28;20025;-73
2022/05/22 05:35:01;;;;;;;1.00;1.00;;;16.20;99.90;;;;;;5219490;28;20055;-74
2022/05/22 05:37:38;;;;;;;1.25;1.15;;;16.00;99.90;;;;;;5203663;28;20052;-73
2022/05/22 05:40:10;;;;;;;1.20;1.10;;;16.10;99.90;;;;;;5220601;28;20009;-73
2022/05/22 05:42:42;;;;;;;1.42;1.30;;;16.10;99.90;;;;;;5200211;28;20025;-73
2022/05/22 05:45:14;;;;;;;1.27;1.17;;;16.10;99.90;;;;;;5214547;28;20021;-74
2022/05/22 05:47:53;;;;;;;1.60;1.50;;;16.00;99.90;;;;;;5221432;28;20023;-74
2022/05/22 05:50:26;;;;;;;1.73;1.48;;;16.10;99.90;;;;;;5219665;28;20359;-73
2022/05/22 05:53:06;;;;;;;1.42;1.25;;;16.10;99.90;;;;;;5220472;28;20033;-74
2022/05/22 05:55:40;;;;;;;1.23;1.05;;;16.00;99.90;;;;;;5214541;28;20405;-74
2022/05/22 05:58:14;;;;;;;1.65;1.20;;;16.00;99.90;;;;;;5200415;28;20342;-73
2022/05/22 06:00:48;;;;;;;1.80;1.30;;;16.00;99.90;;;;;;5215883;28;20560;-73
2022/05/22 06:03:19;;;;;;;3.33;1.13;;;16.00;99.90;;;;;;5200774;28;20028;-73
2022/05/22 06:05:51;;;;;;;1.20;1.10;;;16.20;99.90;;;;;;5211500;28;20040;-73
2022/05/22 06:08:22;;;;;;;1.48;1.38;;;16.40;99.90;;;;;;5219686;28;20035;-73
2022/05/22 06:10:56;;;;;;;3.08;1.67;;;16.40;99.90;;;;;;5219476;28;20290;-73
2022/05/22 06:13:28;;;;;;;1.60;1.42;;;16.30;99.90;;;;;;5217537;28;20035;-73
2022/05/22 06:16:02;;;;;;;1.52;1.40;;;16.30;99.90;;;;;;5217061;28;20203;-73
2022/05/22 06:18:38;;;;;;;4.87;0.97;;;16.40;99.90;;;;;;5214159;28;20048;-73
2022/05/22 06:21:19;;;;;;;1.85;1.33;;;16.50;99.90;;;;;;5220436;28;20270;-73
2022/05/22 06:23:51;;;;;;;2.55;1.23;;;16.60;99.90;;;;;;5212594;28;20035;-74
2022/05/22 06:26:26;;;;;;;1.75;1.65;;;16.40;99.90;;;;;;5200348;28;20464;-73
2022/05/22 06:28:57;;;;;;;;;;;16.60;99.90;;;;;;5183131;28;20375;-73
2022/05/22 06:31:38;;;;;;;0.85;0.80;;;16.80;99.90;;;;;;5203362;28;20170;-74
2022/05/22 06:34:15;;;;;;;1.40;1.30;;;16.90;99.90;;;;;;5200277;28;20369;-73
2022/05/22 06:36:52;;;;;;;1.73;1.45;;;16.90;99.90;;;;;;5214053;28;20481;-74
2022/05/22 06:42:15;;;;;;;1.98;1.52;;;16.80;99.90;;;;;;5216724;28;20028;-73
2022/05/22 06:45:13;;;;;;;2.35;1.40;;;16.90;99.90;;;;;;5201366;28;20033;-73
2022/05/22 06:47:51;;;;;;;4.25;1.30;;;17.30;99.90;;;;;;5207750;28;20025;-72
2022/05/22 06:50:28;;;;;;;1.30;1.20;;;17.40;99.90;;;;;;5215870;28;20041;-74
2022/05/22 06:53:00;;;;;;;1.38;1.27;;;17.70;99.90;;;;;;5219829;28;20013;-73
2022/05/22 06:55:33;;;;;;;1.40;0.98;;;17.70;99.90;;;;;;5204420;28;20021;-74
2022/05/22 06:58:07;;;;;;;1.70;1.48;;;17.60;99.90;;;;;;5211903;28;20020;-74
2022/05/22 07:00:40;;;;;;;1.10;1.00;;;17.50;99.90;;;;;;5217432;28;20013;-73
2022/05/22 07:03:14;;;;;;;1.23;1.10;;;17.60;99.90;;;;;;5221211;28;20029;-72
2022/05/22 07:05:48;;;;;;;1.23;1.02;;;17.60;99.90;;;;;;5215431;28;20035;-74
2022/05/22 07:08:22;;;;;;;;;;;18.00;99.90;;;;;;5201984;28;20017;-73
2022/05/22 07:13:47;;;;;;;1.70;1.00;;;17.90;99.90;;;;;;5213130;28;20017;-72
2022/05/22 07:16:18;;;;;;;;;;;18.20;99.90;;;;;;5211542;28;20481;-73
2022/05/22 07:18:55;;;;;;;1.67;1.00;;;18.40;99.90;;;;;;5217422;28;19912;-73
2022/05/22 07:21:34;;;;;;;2.40;1.23;;;18.60;99.90;;;;;;5219151;28;20071;-72
2022/05/22 07:24:08;;;;;;;1.63;1.25;;;18.80;99.90;;;;;;5220675;28;20035;-73
2022/05/22 07:26:45;;;;;;;0.98;0.93;;;18.80;99.90;;;;;;5221534;28;20024;-73
2022/05/22 07:29:23;;;;;;;1.00;1.00;;;18.70;99.90;;;;;;5227512;28;20025;-73
2022/05/22 07:31:56;;;;;;;1.33;0.98;;;18.10;99.90;;;;;;5216720;28;20017;-72
2022/05/22 07:34:28;;;;;;;1.17;1.10;;;17.90;99.90;;;;;;5220373;28;20460;-73
2022/05/22 07:37:07;;;;;;;1.33;1.00;;;18.00;99.90;;;;;;5220863;28;20030;-72
2022/05/22 07:39:42;;;;;;;1.23;1.13;;;17.90;99.90;;;;;;5240636;28;20016;-73
2022/05/22 07:42:15;;;;;;;;;;;17.90;99.90;;;;;;5238212;28;20043;-73
2022/05/22 07:44:54;;;;;;;5.43;1.52;;;18.10;99.90;;;;;;5219252;28;19923;-73
2022/05/22 07:47:28;;;;;;;1.27;1.08;;;18.40;99.90;;;;;;5202854;28;20375;-72
2022/05/22 07:50:17;;;;;;;0.80;0.80;;;18.90;99.90;;;;;;5219840;28;20031;-73
2022/05/22 07:52:53;;;;;;;1.52;1.10;;;18.90;99.90;;;;;;5214826;28;20176;-73
2022/05/22 07:55:30;;;;;;;1.73;1.10;;;18.50;99.90;;;;;;5200390;28;20336;-73
2022/05/22 07:58:04;;;;;;;1.83;0.95;;;18.50;99.90;;;;;;5200278;28;20022;-73
2022/05/22 08:00:41;;;;;;;0.98;0.93;;;18.70;99.90;;;;;;5230021;28;20467;-72
2022/05/22 08:03:15;;;;;;;1.02;0.93;;;18.50;99.90;;;;;;5224904;28;20105;-74
2022/05/22 08:05:47;;;;;;;1.20;1.10;;;18.60;99.90;;;;;;5204086;28;20037;-73
2022/05/22 08:08:22;;;;;;;1.13;1.02;;;18.90;99.90;;;;;;5223462;28;20027;-72
2022/05/22 08:11:00;;;;;;;2.92;1.33;;;19.10;99.90;;;;;;5198602;28;20014;-73
2022/05/22 08:13:31;;;;;;;1.17;1.05;;;18.80;99.90;;;;;;5201432;28;20352;-73
2022/05/22 08:16:03;;;;;;;1.10;1.08;;;18.80;99.90;;;;;;5198491;28;20039;-73
2022/05/22 08:18:37;;;;;;;1.27;1.00;;;18.30;99.90;;;;;;5218749;28;20039;-73
2022/05/22 08:21:13;;;;;;;1.70;1.17;;;18.60;99.90;;;;;;5220628;28;20023;-73
2022/05/22 08:23:48;;;;;;;2.03;1.63;;;18.80;99.90;;;;;;5215801;28;20029;-73
2022/05/22 08:26:20;;;;;;;1.30;1.20;;;18.80;99.90;;;;;;5218825;28;20052;-73
2022/05/22 08:28:55;;;;;;;3.22;1.30;;;18.80;99.90;;;;;;5221548;28;20039;-73
2022/05/22 08:31:26;;;;;;;1.10;1.00;;;18.80;99.90;;;;;;5221363;28;20360;-73
2022/05/22 08:33:58;;;;;;;2.58;1.23;;;18.80;99.90;;;;;;5221796;28;20031;-73
2022/05/22 08:36:29;;;;;;;2.20;1.38;;;18.80;99.90;;;;;;5211231;28;20031;-73
2022/05/22 08:39:05;;;;;;;1.10;1.10;;;19.00;99.90;;;;;;5207205;28;20023;-73
2022/05/22 08:41:50;;;;;;;1.95;1.52;;;18.60;99.90;;;;;;5220746;28;20039;-73
2022/05/22 08:44:30;;;;;;;2.08;1.33;;;18.80;99.90;;;;;;5219663;28;20023;-73
2022/05/22 08:47:18;;;;;;;1.23;1.00;;;19.30;99.90;;;;;;5220473;28;20017;-73
2022/05/22 08:50:03;;;;;;;0.93;0.93;;;19.20;99.90;;;;;;5221280;28;20028;-73
2022/05/22 08:52:53;;;;;;;4.35;1.38;;;20.30;99.90;;;;;;5212808;28;20023;-73
2022/05/22 09:01:42;;;;;;;1.33;0.93;;;19.90;99.90;;;;;;5227514;28;20059;-72
2022/05/22 09:04:29;;;;;;;2.60;0.90;;;19.80;99.90;;;;;;5229538;28;20054;-72
2022/05/22 09:07:04;;;;;;;1.20;1.10;;;19.70;99.90;;;;;;5191165;28;20044;-72
2022/05/22 09:09:43;;;;;;;2.38;1.00;;;19.90;99.90;;;;;;5210628;28;20035;-72
2022/05/22 09:12:23;;;;;;;2.03;1.00;;;20.10;99.90;;;;;;5216279;28;20036;-73
2022/05/22 09:15:22;;;;;;;1.75;1.13;;;19.80;99.90;;;;;;5222689;28;20020;-73
2022/05/22 09:18:06;;;;;;;1.35;0.90;;;19.80;99.90;;;;;;5201160;28;20035;-73
2022/05/22 09:20:59;;;;;;;2.53;1.10;;;20.20;99.90;;;;;;5217714;28;20033;-73
2022/05/22 09:24:12;;;;;;;0.80;0.80;;;20.00;99.90;;;;;;5221447;28;20016;-73
2022/05/22 09:27:09;;;;;;;1.92;1.50;;;20.20;99.90;;;;;;5202940;28;20025;-72
2022/05/22 09:29:58;;;;;;;1.05;0.93;;;20.50;99.90;;;;;;5215550;28;20043;-72
2022/05/22 09:32:46;;;;;;;0.90;0.90;;;20.00;99.90;;;;;;5222302;28;20037;-72
2022/05/22 09:35:34;;;;;;;1.05;0.98;;;20.30;99.90;;;;;;5221985;28;20013;-73
2022/05/22 09:38:36;;;;;;;0.98;0.98;;;21.00;99.90;;;;;;5220173;28;20026;-73
2022/05/22 09:41:46;;;;;;;2.13;1.10;;;20.80;99.90;;;;;;5215782;28;20021;-72
2022/05/22 09:44:48;;;;;;;2.08;1.27;;;21.30;99.90;;;;;;5212795;28;20033;-72
2022/05/22 09:47:41;;;;;;;1.73;1.33;;;21.10;99.90;;;;;;5221976;28;20033;-73
2022/05/22 09:50:29;;;;;;;3.30;1.00;;;21.30;99.90;;;;;;5213697;28;20021;-73
2022/05/22 09:53:14;;;;;;;1.15;1.05;;;21.40;99.90;;;;;;5222268;28;20039;-73
2022/05/22 09:55:55;;;;;;;2.17;1.25;;;21.80;99.90;;;;;;5221566;28;20410;-73
2022/05/22 09:58:50;;;;;;;2.00;1.00;;;21.50;99.90;;;;;;5215460;28;20488;-73
2022/05/22 10:01:36;;;;;;;1.50;1.02;;;21.60;99.90;;;;;;5202451;28;20269;-73
2022/05/22 10:04:14;;;;;;;1.02;0.90;;;21.90;99.90;;;;;;5214972;28;20031;-73
2022/05/22 10:06:50;;;;;;;0.85;0.82;;;21.40;99.90;;;;;;5194633;28;20041;-73
2022/05/22 10:09:56;;;;;;;1.23;1.10;;;21.30;99.90;;;;;;5204336;28;20029;-73
2022/05/22 10:13:08;;;;;;;1.05;1.00;;;21.80;99.90;;;;;;5196823;28;20267;-73
2022/05/22 10:16:11;;;;;;;2.15;1.38;;;21.90;99.90;;;;;;5210556;28;20035;-73
2022/05/22 10:19:27;;;;;;;1.33;1.27;;;21.70;99.90;;;;;;5219778;28;20270;-73
2022/05/22 10:22:51;;;;;;;1.20;1.08;;;22.40;99.90;;;;;;5213278;28;20017;-73
2022/05/22 10:26:02;;;;;;;1.10;1.02;;;22.40;99.90;;;;;;5190651;28;20041;-74
2022/05/22 10:29:03;;;;;;;1.15;1.05;;;22.20;99.90;;;;;;5164662;28;20203;-74
2022/05/22 10:32:12;;;;;;;1.05;0.85;;;22.60;99.90;;;;;;5154360;28;20033;-72
2022/05/22 10:35:10;;;;;;;3.33;0.90;;;22.10;99.90;;;;;;5160567;28;20053;-72
2022/05/22 10:37:50;;;;;;;0.90;0.80;;;23.80;99.90;;;;;;5151316;28;20037;-74
2022/05/22 10:40:25;;;;;;;0.80;0.80;;;24.70;99.90;;;;;;5169828;28;20061;-75
2022/05/22 10:42:57;;;;;;;1.92;1.00;;;26.00;99.90;;;;;;5168953;28;20540;-75
2022/05/22 10:45:33;;;;;;;1.42;1.08;;;26.00;99.90;;;;;;5189837;28;20030;-75
2022/05/22 10:48:09;;;;;;;0.80;0.80;;;24.90;99.90;;;;;;5158943;28;20064;-74
2022/05/22 10:51:07;;;;;;;1.30;0.80;;;24.70;99.90;;;;;;5155388;28;20480;-75
2022/05/22 10:53:51;;;;;;;0.93;0.65;;;24.70;99.90;;;;;;5179734;28;20129;-74
2022/05/22 10:56:27;;;;;;;1.02;1.00;;;24.40;99.90;;;;;;5179021;28;20065;-75
2022/05/22 10:59:02;;;;;;;1.33;0.80;;;25.00;99.90;;;;;;5194297;28;20334;-75
2022/05/22 11:01:38;;;;;;;1.20;1.05;;;26.40;99.90;;;;;;5204729;28;20017;-74
2022/05/22 11:04:11;;;;;;;0.80;0.77;;;26.70;99.90;;;;;;5196443;28;20033;-74
2022/05/22 11:06:58;;;;;;;1.97;1.03;;;27.10;99.90;;;;;;5202493;28;20037;-75
2022/05/22 11:09:37;;;;;;;6.38;1.05;;;26.20;99.90;;;;;;5207633;28;20272;-74
2022/05/22 11:12:21;;;;;;;1.13;0.85;;;26.80;99.90;;;;;;5214125;28;20020;-74
2022/05/22 11:15:16;;;;;;;1.58;1.48;;;26.40;99.90;;;;;;5202027;28;20037;-74
2022/05/22 11:17:52;;;;;;;0.80;0.73;;;25.60;99.90;;;;;;5215353;28;20042;-74
2022/05/22 11:20:27;;;;;;;1.17;1.08;;;25.10;99.90;;;;;;5214725;28;20210;-74
2022/05/22 11:23:46;;;;;;;1.77;1.23;;;24.70;99.90;;;;;;5221692;28;20031;-74
2022/05/22 11:26:34;;;;;;;1.02;0.95;;;24.50;99.90;;;;;;5196189;28;20021;-74
2022/05/22 11:29:46;;;;;;;1.27;1.10;;;24.90;99.90;;;;;;5215080;28;20507;-74
2022/05/22 11:33:13;;;;;;;0.75;0.75;;;26.60;99.90;;;;;;5228452;28;20021;-74
2022/05/22 11:35:53;;;;;;;1.10;0.95;;;28.30;99.90;;;;;;5186981;28;20607;-74
2022/05/22 11:39:26;;;;;;;0.90;0.90;;;27.20;99.90;;;;;;5179634;28;20045;-74
2022/05/22 11:42:27;;;;;;;1.08;0.98;;;27.10;99.90;;;;;;5197345;28;20030;-73
2022/05/22 11:45:06;;;;;;;1.13;1.02;;;25.90;99.90;;;;;;5216551;28;20493;-76
2022/05/22 11:47:56;;;;;;;1.92;0.90;;;26.20;99.90;;;;;;5210683;28;20020;-75
2022/05/22 11:50:43;;;;;;;1.58;1.15;;;25.40;99.90;;;;;;5216376;28;20024;-74
2022/05/22 11:53:33;;;;;;;1.60;1.20;;;24.90;99.90;;;;;;5217825;28;20041;-75
2022/05/22 11:56:47;;;;;;;2.22;1.20;;;26.10;99.90;;;;;;5196998;28;20040;-75
2022/05/22 12:00:03;;;;;;;0.90;0.88;;;25.90;99.90;;;;;;5203839;28;20039;-75
2022/05/22 12:03:02;;;;;;;0.90;0.88;;;26.80;99.90;;;;;;5158115;28;20488;-74
2022/05/22 12:06:07;;;;;;;1.17;1.02;;;29.00;99.90;;;;;;5146805;28;20056;-74
2022/05/22 12:09:04;;;;;;;;;;;27.50;99.90;;;;;;5154051;28;20026;-73
2022/05/22 12:11:55;;;;;;;1.70;0.82;;;27.20;99.90;;;;;;5174733;28;20491;-73
2022/05/22 12:15:23;;;;;;;1.13;1.02;;;27.40;99.90;;;;;;5180667;28;20045;-74
2022/05/22 12:18:22;;;;;;;0.82;0.82;;;26.30;99.90;;;;;;5134322;28;20051;-74
2022/05/22 12:21:27;;;;;;;1.33;1.10;;;25.60;99.90;;;;;;5131377;28;20516;-74
2022/05/22 12:24:15;;;;;;;2.20;1.20;;;25.10;99.90;;;;;;5131203;28;20521;-74
2022/05/22 12:27:01;;;;;;;1.35;1.13;;;25.50;99.90;;;;;;5118401;28;20033;-75
2022/05/22 12:29:48;;;;;;;0.98;0.70;;;26.90;99.90;;;;;;5118942;28;20057;-75
2022/05/22 12:32:26;;;;;;;0.80;0.80;;;28.50;99.90;;;;;;5117288;28;20014;-73
2022/05/22 12:35:02;;;;;;;3.17;1.90;;;28.50;99.90;;;;;;5114771;28;20038;-73
2022/05/22 12:38:03;;;;;;;1.33;0.98;;;27.60;99.90;;;;;;5142463;28;20446;-73
2022/05/22 12:40:41;;;;;;;1.83;1.00;;;27.70;99.90;;;;;;5158607;28;20030;-73
2022/05/22 12:43:26;;;;;;;3.38;0.80;;;27.30;99.90;;;;;;5179796;28;20052;-73
2022/05/22 12:46:04;;;;;;;2.28;1.02;;;27.50;99.90;;;;;;5137011;28;20466;-74
2022/05/22 12:48:43;;;;;;;1.38;1.10;;;28.00;99.90;;;;;;5177714;28;20047;-75
2022/05/22 12:51:25;;;;;;;1.17;1.00;;;28.30;99.90;;;;;;5221272;28;20046;-74
2022/05/22 12:54:24;;;;;;;1.08;0.98;;;27.60;99.90;;;;;;5217400;28;20024;-76
2022/05/22 12:57:22;;;;;;;1.80;0.80;;;28.60;99.90;;;;;;5213858;28;20095;-75
2022/05/22 12:59:59;;;;;;;1.75;0.90;;;30.80;99.90;;;;;;5223611;28;20021;-75
2022/05/22 13:02:46;;;;;;;3.15;2.08;;;29.20;99.90;;;;;;5216274;28;20068;-75
2022/05/22 13:05:30;;;;;;;1.65;1.13;;;28.70;99.90;;;;;;5208442;28;20357;-76
2022/05/22 13:08:15;;;;;;;0.80;0.80;;;28.30;99.90;;;;;;5215016;28;20017;-75
2022/05/22 13:10:58;;;;;;;1.80;0.95;;;27.70;99.90;;;;;;5213549;28;20013;-75
2022/05/22 13:13:37;;;;;;;0.80;0.80;;;28.60;99.90;;;;;;5220812;28;20023;-75
2022/05/22 13:16:11;;;;;;;0.82;0.82;;;27.30;99.90;;;;;;5218771;28;20539;-75
2022/05/22 13:18:50;;;;;;;1.75;1.10;;;27.70;99.90;;;;;;5219356;28;20021;-75
2022/05/22 13:21:48;;;;;;;1.45;1.10;;;28.80;99.90;;;;;;5215817;28;20029;-75
2022/05/22 13:24:33;;;;;;;1.60;1.00;;;28.70;99.90;;;;;;5192840;28;20555;-73
2022/05/22 13:27:24;;;;;;;1.63;1.52;;;27.40;99.90;;;;;;5215616;28;20033;-74
2022/05/22 13:30:26;;;;;;;1.50;1.40;;;27.40;99.90;;;;;;5199293;28;20041;-73
2022/05/22 13:33:11;;;;;;;1.77;1.00;;;27.30;99.90;;;;;;5217551;28;20028;-76
2022/05/22 13:35:53;;;;;;;;;;;28.60;99.90;;;;;;5202754;28;20079;-74
2022/05/22 13:38:33;;;;;;;1.25;1.15;;;27.10;99.90;;;;;;5198892;28;19912;-74
2022/05/22 13:41:41;;;;;;;1.73;0.82;;;26.70;99.90;;;;;;5199935;28;20025;-74
2022/05/22 13:44:59;;;;;;;1.02;0.90;;;27.40;99.90;;;;;;5199415;28;20032;-74
2022/05/22 13:47:59;;;;;;;1.50;1.30;;;28.70;99.90;;;;;;5198520;28;20055;-74
2022/05/22 13:54:26;;;;;;;1.20;1.10;;;29.10;99.90;;;;;;5219159;28;20036;-74
2022/05/22 13:57:24;;;;;;;0.80;0.80;;;30.30;99.90;;;;;;5205751;28;20025;-75
2022/05/22 14:00:08;;;;;;;2.25;1.30;;;29.70;99.90;;;;;;5197032;28;20036;-75
2022/05/22 14:03:04;;;;;;;4.60;1.40;;;28.80;99.90;;;;;;5219745;28;20034;-74
2022/05/22 14:05:44;;;;;;;0.93;0.80;;;28.10;99.90;;;;;;5221475;28;20045;-74
2022/05/22 14:08:25;;;;;;;1.70;0.80;;;28.00;99.90;;;;;;5210155;28;20028;-74
2022/05/22 14:11:05;;;;;;;1.08;0.80;;;29.10;99.90;;;;;;5218592;28;20026;-74
2022/05/22 14:13:52;;;;;;;1.13;0.90;;;27.50;99.90;;;;;;5233931;28;20618;-74
2022/05/22 14:16:38;;;;;;;3.80;1.05;;;28.10;99.90;;;;;;5218676;28;20031;-74
2022/05/22 14:19:19;;;;;;;1.10;1.00;;;28.60;99.90;;;;;;5207976;28;20029;-74